Time;durP1;ratioP1;P1;durP2;ratioP2;P2;SDS_P1;SDS_P2;PMS_P1;PMS_P2;Temp;Humidity;BMP_temperature;BMP_pressure;BME280_temperature;BME280_humidity;BME280_pressure;Samples;Min_cycle;Max_cycle;Signal;HPM_P1;HPM_P2
2023/09/21 00:00:27;;;;;;;3.70;1.83;;;;;;;18.78;100.00;99735.31;4960368;28;20034;-77
2023/09/21 00:02:55;;;;;;;10.13;1.77;;;;;;;18.76;100.00;99728.25;4961855;28;20047;-86
2023/09/21 00:05:24;;;;;;;2.50;1.67;;;;;;;18.77;100.00;99728.06;4955874;29;20023;-86
2023/09/21 00:07:57;;;;;;;6.70;2.00;;;;;;;18.72;100.00;99723.09;4945837;28;20031;-87
2023/09/21 00:10:31;;;;;;;2.97;1.48;;;;;;;18.71;100.00;99721.41;4957494;28;20023;-86
2023/09/21 00:12:56;;;;;;;2.88;1.50;;;;;;;18.80;100.00;99716.56;4954533;28;20024;-86
2023/09/21 00:15:29;;;;;;;3.15;1.60;;;;;;;18.83;100.00;99721.72;4941599;28;20042;-86
2023/09/21 00:17:58;;;;;;;2.78;1.50;;;;;;;18.78;100.00;99712.28;4959651;28;20039;-86
2023/09/21 00:20:29;;;;;;;3.53;2.10;;;;;;;18.83;100.00;99712.53;4957779;28;20024;-86
2023/09/21 00:22:55;;;;;;;5.50;1.90;;;;;;;18.74;100.00;99711.81;4947076;29;20050;-86
2023/09/21 00:25:25;;;;;;;6.55;1.80;;;;;;;18.62;100.00;99703.22;4945443;28;20205;-87
2023/09/21 00:27:51;;;;;;;4.40;1.90;;;;;;;18.66;100.00;99706.44;4951424;28;20042;-87
2023/09/21 00:30:17;;;;;;;3.92;1.67;;;;;;;18.60;100.00;99697.03;4939606;28;20035;-87
2023/09/21 00:32:42;;;;;;;7.13;1.85;;;;;;;18.63;100.00;99691.06;4937230;28;20058;-87
2023/09/21 00:35:09;;;;;;;2.72;1.50;;;;;;;18.61;100.00;99689.53;4951987;28;20147;-86
2023/09/21 00:37:39;;;;;;;4.47;1.83;;;;;;;18.58;100.00;99687.19;4947699;28;20038;-87
2023/09/21 00:40:20;;;;;;;3.70;1.50;;;;;;;18.61;100.00;99686.78;4957655;28;20158;-87
2023/09/21 00:42:46;;;;;;;3.58;1.45;;;;;;;18.63;100.00;99679.13;4952427;28;20090;-87
2023/09/21 00:45:13;;;;;;;5.82;1.63;;;;;;;18.49;100.00;99665.16;4938379;28;20529;-86
2023/09/21 00:47:42;;;;;;;8.23;1.83;;;;;;;18.56;100.00;99665.19;4955140;28;20053;-87
2023/09/21 00:50:12;;;;;;;4.88;1.50;;;;;;;18.60;100.00;99668.44;4959598;28;20026;-87
2023/09/21 00:52:44;;;;;;;4.90;1.52;;;;;;;18.54;100.00;99656.25;4941217;29;20031;-88
2023/09/21 00:55:30;;;;;;;3.63;1.65;;;;;;;18.47;100.00;99658.97;4955860;28;20031;-87
2023/09/21 00:58:02;;;;;;;5.55;1.67;;;;;;;18.56;100.00;99651.34;4939859;29;20027;-86
2023/09/21 01:00:30;;;;;;;4.35;1.67;;;;;;;18.51;100.00;99651.97;4953545;28;20027;-86
2023/09/21 01:03:07;;;;;;;6.03;1.75;;;;;;;18.48;100.00;99645.94;4936745;29;20042;-86
2023/09/21 01:05:36;;;;;;;10.52;1.95;;;;;;;18.41;100.00;99653.38;4954853;28;20486;-87
2023/09/21 01:08:09;;;;;;;4.07;1.40;;;;;;;18.50;100.00;99650.25;4930507;29;20044;-87
2023/09/21 01:10:37;;;;;;;5.43;1.55;;;;;;;18.53;100.00;99644.31;4935327;29;20110;-77
2023/09/21 01:13:03;;;;;;;3.40;1.50;;;;;;;18.49;100.00;99631.88;4949532;28;20039;-77
2023/09/21 01:15:29;;;;;;;2.58;1.30;;;;;;;18.50;100.00;99632.78;4949220;28;20047;-77
2023/09/21 01:17:54;;;;;;;3.30;1.52;;;;;;;18.42;100.00;99638.47;4939474;28;20561;-77
2023/09/21 01:20:23;;;;;;;5.18;1.75;;;;;;;18.37;100.00;99636.31;4940889;28;20504;-77
2023/09/21 01:23:19;;;;;;;5.38;1.60;;;;;;;18.32;100.00;99628.59;4933741;29;20049;-77
2023/09/21 01:25:52;;;;;;;7.38;1.55;;;;;;;18.29;100.00;99628.16;4897585;29;20031;-77
2023/09/21 01:28:22;;;;;;;2.53;1.60;;;;;;;18.23;100.00;99620.63;4934586;28;20054;-77
2023/09/21 01:30:49;;;;;;;4.57;1.75;;;;;;;18.17;100.00;99612.06;4919928;29;20038;-76
2023/09/21 01:33:15;;;;;;;5.60;1.88;;;;;;;18.17;100.00;99620.38;4934922;29;20027;-76
2023/09/21 01:35:45;;;;;;;4.43;1.67;;;;;;;18.08;100.00;99606.88;4952581;28;20035;-76
2023/09/21 01:38:14;;;;;;;5.60;1.70;;;;;;;18.02;100.00;99600.25;4935247;28;20035;-77
2023/09/21 01:40:41;;;;;;;3.53;1.33;;;;;;;18.03;100.00;99604.72;4936077;28;20052;-77
2023/09/21 01:43:08;;;;;;;6.30;1.63;;;;;;;17.94;100.00;99592.94;4917347;28;20056;-77
2023/09/21 01:45:40;;;;;;;3.97;1.83;;;;;;;17.83;100.00;99599.00;4950951;28;20027;-77
2023/09/21 01:48:09;;;;;;;3.08;1.67;;;;;;;17.91;100.00;99601.66;4957655;28;20046;-77
2023/09/21 01:50:43;;;;;;;6.28;1.65;;;;;;;17.88;100.00;99588.19;4948249;28;20402;-77
2023/09/21 01:53:09;;;;;;;3.22;1.58;;;;;;;17.88;100.00;99588.19;4949544;28;20126;-77
2023/09/21 01:55:35;;;;;;;3.60;1.42;;;;;;;17.83;100.00;99585.16;4954246;28;20074;-77
2023/09/21 01:58:01;;;;;;;3.55;1.75;;;;;;;17.81;100.00;99581.72;4950414;28;20038;-77
2023/09/21 02:00:28;;;;;;;4.82;1.80;;;;;;;17.91;100.00;99582.25;4949418;28;20070;-77
2023/09/21 02:02:56;;;;;;;4.88;2.00;;;;;;;17.88;100.00;99581.81;4948578;28;20126;-77
2023/09/21 02:05:23;;;;;;;2.78;1.60;;;;;;;17.95;100.00;99571.63;4946358;28;20101;-77
2023/09/21 02:07:51;;;;;;;7.50;1.88;;;;;;;17.93;100.00;99566.28;4947557;28;20078;-77
2023/09/21 02:10:17;;;;;;;3.40;1.40;;;;;;;17.91;100.00;99564.81;4951366;28;20034;-77
2023/09/21 02:12:56;;;;;;;4.00;1.80;;;;;;;17.91;100.00;99548.19;4950515;28;20039;-77
2023/09/21 02:15:26;;;;;;;8.15;1.77;;;;;;;17.82;100.00;99552.97;4949183;28;20094;-77
2023/09/21 02:17:54;;;;;;;6.40;1.90;;;;;;;17.84;100.00;99556.41;4952236;28;20023;-77
2023/09/21 02:20:20;;;;;;;4.50;1.60;;;;;;;17.85;100.00;99554.50;4947015;28;20106;-77
2023/09/21 02:22:48;;;;;;;3.13;1.45;;;;;;;17.85;100.00;99555.34;4935132;28;20031;-77
2023/09/21 02:25:13;;;;;;;3.55;1.90;;;;;;;17.80;100.00;99544.84;4952026;28;20118;-77
2023/09/21 02:27:40;;;;;;;2.08;1.48;;;;;;;17.86;100.00;99548.75;4935119;29;20122;-76
2023/09/21 02:30:14;;;;;;;4.13;1.70;;;;;;;17.80;100.00;99546.78;4949362;28;20086;-77
2023/09/21 02:32:51;;;;;;;4.13;1.70;;;;;;;17.87;100.00;99546.81;4952451;28;20035;-77
2023/09/21 02:35:22;;;;;;;5.10;1.60;;;;;;;17.84;100.00;99542.56;4949652;28;20368;-77
2023/09/21 02:37:49;;;;;;;5.30;1.75;;;;;;;17.86;100.00;99545.13;4951702;28;20050;-77
2023/09/21 02:40:17;;;;;;;4.40;1.40;;;;;;;17.91;100.00;99545.41;4948670;28;20035;-77
2023/09/21 02:42:48;;;;;;;6.28;1.73;;;;;;;17.83;100.00;99538.06;4947322;28;20094;-77
2023/09/21 02:45:18;;;;;;;2.97;1.70;;;;;;;17.84;100.00;99539.78;4912621;29;20711;-76
2023/09/21 02:47:43;;;;;;;5.22;1.73;;;;;;;17.85;100.00;99543.41;4911284;29;20503;-77
2023/09/21 02:50:25;;;;;;;3.03;1.70;;;;;;;17.83;100.00;99533.38;4933466;29;20034;-77
2023/09/21 02:53:06;;;;;;;3.47;1.52;;;;;;;17.85;100.00;99529.56;4933112;29;20029;-77
2023/09/21 02:55:33;;;;;;;1.98;1.52;;;;;;;17.78;100.00;99527.59;4911346;29;20036;-76
2023/09/21 02:58:19;;;;;;;3.67;1.48;;;;;;;17.71;100.00;99523.94;4927201;29;20555;-77
2023/09/21 03:00:45;;;;;;;6.13;1.77;;;;;;;17.79;100.00;99525.69;4925358;29;20036;-76
2023/09/21 03:03:13;;;;;;;5.40;1.90;;;;;;;17.72;100.00;99520.09;4911556;29;20487;-77
2023/09/21 03:05:40;;;;;;;4.57;1.48;;;;;;;17.71;100.00;99518.41;4928450;29;20036;-76
2023/09/21 03:08:12;;;;;;;5.35;1.70;;;;;;;17.71;100.00;99509.22;4932818;29;20023;-76
2023/09/21 03:10:40;;;;;;;5.90;1.77;;;;;;;17.75;100.00;99511.38;4926344;29;20039;-76
2023/09/21 03:13:06;;;;;;;2.78;1.88;;;;;;;17.71;100.00;99514.75;4903315;29;20075;-77
2023/09/21 03:15:36;;;;;;;6.25;1.92;;;;;;;17.78;100.00;99508.22;4912914;29;20046;-77
2023/09/21 03:18:07;;;;;;;3.03;1.70;;;;;;;17.74;100.00;99511.59;4934589;29;20122;-76
2023/09/21 03:20:34;;;;;;;4.90;1.48;;;;;;;17.59;100.00;99508.91;4916508;29;20086;-79
2023/09/21 03:23:05;;;;;;;2.28;1.48;;;;;;;17.63;100.00;99522.16;4898799;29;20533;-77
2023/09/21 03:25:33;;;;;;;5.82;1.65;;;;;;;17.59;100.00;99511.69;4917018;29;20036;-76
2023/09/21 03:28:06;;;;;;;6.13;1.58;;;;;;;17.71;100.00;99518.41;4931943;29;20039;-77
2023/09/21 03:30:32;;;;;;;3.70;1.42;;;;;;;17.72;100.00;99517.31;4932659;29;20410;-86
2023/09/21 03:32:57;;;;;;;8.00;1.60;;;;;;;17.68;100.00;99515.19;4900686;29;20581;-87
2023/09/21 03:35:26;;;;;;;5.80;2.10;;;;;;;17.62;100.00;99511.28;4899458;29;20067;-87
2023/09/21 03:37:53;;;;;;;3.03;1.65;;;;;;;17.69;100.00;99517.72;4896601;29;20036;-87
2023/09/21 03:40:19;;;;;;;5.25;1.58;;;;;;;17.67;100.00;99521.75;4884157;29;20039;-87
2023/09/21 03:42:46;;;;;;;7.03;2.00;;;;;;;17.67;100.00;99517.06;4931573;29;20028;-86
2023/09/21 03:45:15;;;;;;;3.22;1.90;;;;;;;17.57;100.00;99511.88;4931734;29;20499;-87
2023/09/21 03:47:42;;;;;;;2.67;1.60;;;;;;;17.60;100.00;99502.34;4933731;29;20272;-86
2023/09/21 03:50:12;;;;;;;4.93;2.03;;;;;;;17.60;100.00;99513.41;4946134;28;20066;-88
2023/09/21 03:52:42;;;;;;;5.00;1.67;;;;;;;17.61;100.00;99504.03;4951291;29;20047;-87
2023/09/21 03:55:10;;;;;;;5.82;1.70;;;;;;;17.60;100.00;99500.41;4949944;28;20050;-88
2023/09/21 03:57:35;;;;;;;2.42;1.77;;;;;;;17.62;100.00;99497.44;4937381;29;20046;-87
2023/09/21 04:00:05;;;;;;;3.83;2.13;;;;;;;17.65;100.00;99494.28;4918139;28;20035;-86
2023/09/21 04:02:31;;;;;;;9.18;1.70;;;;;;;17.68;100.00;99491.13;4945689;28;20599;-87
2023/09/21 04:05:12;;;;;;;5.38;1.75;;;;;;;17.70;100.00;99485.38;4931228;29;20114;-87
2023/09/21 04:07:37;;;;;;;4.55;1.50;;;;;;;17.74;100.00;99473.69;4905152;29;20060;-86
2023/09/21 04:10:04;;;;;;;3.67;1.75;;;;;;;17.80;100.00;99483.94;4943910;28;20055;-87
2023/09/21 04:12:30;;;;;;;3.10;1.80;;;;;;;17.78;100.00;99477.75;4918911;28;20058;-87
2023/09/21 04:14:56;;;;;;;7.85;2.00;;;;;;;17.79;100.00;99479.47;4939201;29;20041;-88
2023/09/21 04:17:21;;;;;;;5.45;2.17;;;;;;;17.76;100.00;99477.13;4915108;28;20034;-88
2023/09/21 04:19:47;;;;;;;10.98;2.05;;;;;;;17.81;100.00;99476.50;4951770;29;20086;-87
2023/09/21 04:22:13;;;;;;;6.13;2.03;;;;;;;17.80;100.00;99478.41;4924581;28;20024;-87
2023/09/21 04:24:40;;;;;;;5.72;1.80;;;;;;;17.79;100.00;99473.94;4915464;29;20023;-87
2023/09/21 04:27:06;;;;;;;3.67;2.13;;;;;;;17.86;100.00;99473.13;4922554;28;20061;-86
2023/09/21 04:29:31;;;;;;;3.08;2.00;;;;;;;17.82;100.00;99479.09;4921130;29;20566;-88
2023/09/21 04:31:56;;;;;;;2.40;1.67;;;;;;;17.81;100.00;99479.28;4920572;29;20035;-87
2023/09/21 04:34:22;;;;;;;5.43;2.35;;;;;;;17.85;100.00;99474.19;4938641;28;20050;-86
2023/09/21 04:36:48;;;;;;;4.80;2.25;;;;;;;17.87;100.00;99480.38;4955636;28;20430;-84
2023/09/21 04:39:15;;;;;;;7.75;1.80;;;;;;;17.80;100.00;99472.88;4923471;29;20493;-89
2023/09/21 04:41:41;;;;;;;6.30;2.13;;;;;;;17.82;100.00;99476.31;4933336;29;20134;-79
2023/09/21 04:44:08;;;;;;;5.68;1.80;;;;;;;17.83;100.00;99477.16;4948335;29;20133;-77
2023/09/21 04:46:36;;;;;;;3.85;1.77;;;;;;;17.77;100.00;99477.97;4930764;29;20082;-78
2023/09/21 04:49:03;;;;;;;3.65;1.90;;;;;;;17.71;100.00;99474.09;4944603;29;20506;-79
2023/09/21 04:51:29;;;;;;;6.40;1.83;;;;;;;17.71;100.00;99476.88;4949824;28;20055;-78
2023/09/21 04:53:54;;;;;;;3.28;1.77;;;;;;;17.69;100.00;99473.44;4906970;29;20027;-78
2023/09/21 04:56:20;;;;;;;5.47;2.00;;;;;;;17.72;100.00;99464.72;4950332;29;20036;-77
2023/09/21 04:58:46;;;;;;;5.30;1.70;;;;;;;17.68;100.00;99466.19;4932565;29;20031;-77
2023/09/21 05:01:12;;;;;;;8.13;2.20;;;;;;;17.68;100.00;99462.59;4932369;29;20042;-77
2023/09/21 05:03:38;;;;;;;13.93;2.53;;;;;;;17.59;100.00;99462.75;4953134;28;20118;-77
2023/09/21 05:06:04;;;;;;;3.15;2.58;;;;;;;17.61;100.00;99466.16;4927785;29;20114;-76
2023/09/21 05:08:30;;;;;;;4.18;1.95;;;;;;;17.57;100.00;99463.97;4915411;29;20039;-76
2023/09/21 05:10:55;;;;;;;7.15;2.13;;;;;;;17.47;100.00;99464.34;4947126;29;20047;-77
2023/09/21 05:13:21;;;;;;;4.13;2.05;;;;;;;17.58;100.00;99471.25;4950499;28;20502;-77
2023/09/21 05:15:48;;;;;;;5.57;2.17;;;;;;;17.65;100.00;99472.13;4922684;29;20074;-77
2023/09/21 05:18:13;;;;;;;3.22;1.77;;;;;;;17.68;100.00;99473.66;4931753;29;20035;-77
2023/09/21 05:20:38;;;;;;;6.78;2.15;;;;;;;17.72;100.00;99472.19;4918975;29;20132;-77
2023/09/21 05:23:04;;;;;;;3.25;1.73;;;;;;;17.71;100.00;99474.09;4930120;29;20036;-77
2023/09/21 05:25:31;;;;;;;5.25;1.83;;;;;;;17.76;100.00;99474.34;4950163;28;20039;-77
2023/09/21 05:27:58;;;;;;;9.30;2.30;;;;;;;17.85;100.00;99479.72;4927776;29;20069;-77
2023/09/21 05:30:28;;;;;;;3.50;2.20;;;;;;;17.76;100.00;99471.56;4915241;29;20244;-77
2023/09/21 05:32:56;;;;;;;2.38;2.00;;;;;;;17.81;100.00;99482.03;4948217;29;20042;-77
2023/09/21 05:35:23;;;;;;;3.55;1.90;;;;;;;17.79;100.00;99479.47;4949308;28;20034;-77
2023/09/21 05:37:49;;;;;;;5.05;2.20;;;;;;;17.82;100.00;99484.63;4936419;28;20047;-77
2023/09/21 05:40:14;;;;;;;5.63;2.10;;;;;;;17.80;100.00;99474.78;4958145;28;20028;-78
2023/09/21 05:42:41;;;;;;;4.10;1.83;;;;;;;17.83;100.00;99477.16;4950130;28;20035;-78
2023/09/21 05:45:08;;;;;;;3.70;1.98;;;;;;;17.81;100.00;99457.97;4952221;28;20462;-77
2023/09/21 05:47:33;;;;;;;4.20;1.90;;;;;;;17.84;100.00;99478.88;4945344;28;20411;-77
2023/09/21 05:49:59;;;;;;;7.15;2.15;;;;;;;17.82;100.00;99462.47;4951486;28;20505;-77
2023/09/21 05:52:25;;;;;;;5.15;2.35;;;;;;;17.85;100.00;99461.19;4956369;28;20486;-77
2023/09/21 05:54:51;;;;;;;4.57;2.20;;;;;;;17.77;100.00;99461.34;4944111;28;20106;-77
2023/09/21 05:57:17;;;;;;;3.25;2.00;;;;;;;17.81;100.00;99446.91;4945281;28;20039;-77
2023/09/21 05:59:44;;;;;;;7.47;2.35;;;;;;;17.85;100.00;99449.25;4947513;28;20379;-77
2023/09/21 06:02:13;;;;;;;8.85;2.17;;;;;;;17.86;100.00;99457.38;4945918;29;20043;-77
2023/09/21 06:04:42;;;;;;;6.43;2.03;;;;;;;17.85;100.00;99444.56;4947091;28;20039;-77
2023/09/21 06:07:07;;;;;;;4.95;1.95;;;;;;;17.87;100.00;99447.13;4942079;28;20019;-77
2023/09/21 06:09:33;;;;;;;5.35;2.45;;;;;;;17.88;100.00;99448.91;4947199;28;20196;-77
2023/09/21 06:11:59;;;;;;;5.93;2.13;;;;;;;17.85;100.00;99458.41;4950474;28;20043;-77
2023/09/21 06:14:25;;;;;;;7.80;2.10;;;;;;;17.84;100.00;99448.41;4948923;28;20039;-77
2023/09/21 06:16:53;;;;;;;9.93;2.55;;;;;;;17.82;100.00;99456.94;4951923;28;20554;-78
2023/09/21 06:19:19;;;;;;;6.32;2.00;;;;;;;17.93;100.00;99451.91;4948127;29;20035;-78
2023/09/21 06:21:50;;;;;;;3.33;2.08;;;;;;;17.86;100.00;99451.00;4945623;28;20034;-76
2023/09/21 06:24:15;;;;;;;6.13;2.35;;;;;;;17.89;100.00;99453.34;4935173;29;20035;-78
2023/09/21 06:26:41;;;;;;;6.68;2.38;;;;;;;17.83;100.00;99447.53;4953978;28;20113;-79
2023/09/21 06:29:06;;;;;;;7.25;2.40;;;;;;;17.85;100.00;99460.34;4947892;29;20085;-79
2023/09/21 06:31:32;;;;;;;5.55;2.45;;;;;;;17.86;100.00;99459.28;4952474;28;20438;-79
2023/09/21 06:33:58;;;;;;;4.20;2.30;;;;;;;17.82;100.00;99456.94;4952890;28;20031;-78
2023/09/21 06:36:28;;;;;;;7.13;2.40;;;;;;;17.83;100.00;99469.69;4964422;28;20035;-79
2023/09/21 06:38:53;;;;;;;9.45;2.85;;;;;;;17.77;100.00;99470.53;4940544;29;20027;-77
2023/09/21 06:41:21;;;;;;;6.40;2.35;;;;;;;17.72;100.00;99473.03;4944769;28;20035;-78
2023/09/21 06:43:47;;;;;;;8.43;3.00;;;;;;;17.62;100.00;99464.22;4944177;29;20060;-78
2023/09/21 06:46:12;;;;;;;5.80;2.47;;;;;;;17.50;100.00;99466.69;4946791;29;20027;-79
2023/09/21 06:48:41;;;;;;;10.82;2.50;;;;;;;17.43;100.00;99471.31;4941531;28;20023;-77
2023/09/21 06:51:10;;;;;;;12.02;2.92;;;;;;;17.33;100.00;99473.56;4947878;29;20094;-78
2023/09/21 06:53:36;;;;;;;6.90;3.05;;;;;;;17.29;100.00;99478.66;4946141;28;20055;-78
2023/09/21 06:56:02;;;;;;;10.57;3.33;;;;;;;17.21;100.00;99474.13;4949213;29;20035;-77
2023/09/21 06:58:30;;;;;;;7.75;2.78;;;;;;;17.15;100.00;99477.69;4945431;29;20023;-77
2023/09/21 07:00:59;;;;;;;11.60;3.55;;;;;;;17.11;100.00;99479.13;4947208;28;20039;-92
2023/09/21 07:03:25;;;;;;;8.52;3.47;;;;;;;17.08;100.00;99472.06;4956254;29;20122;-89
2023/09/21 07:05:51;;;;;;;12.57;3.25;;;;;;;17.09;100.00;99464.66;4933618;29;20031;-91
2023/09/21 07:08:20;;;;;;;8.98;3.75;;;;;;;17.02;100.00;99464.59;4933688;29;20510;-90
2023/09/21 07:10:48;;;;;;;6.72;3.92;;;;;;;17.02;100.00;99464.59;4954110;29;20035;-90
2023/09/21 07:13:13;;;;;;;7.63;3.75;;;;;;;17.00;100.00;99474.97;4935905;29;20039;-89
2023/09/21 07:15:39;;;;;;;8.77;4.00;;;;;;;16.98;100.00;99467.94;4927026;29;20094;-91
2023/09/21 07:18:06;;;;;;;6.38;3.88;;;;;;;17.01;100.00;99464.78;4949629;29;20031;-91
2023/09/21 07:20:32;;;;;;;12.98;4.13;;;;;;;16.98;100.00;99468.78;4947415;29;20031;-90
2023/09/21 07:22:58;;;;;;;7.55;3.67;;;;;;;17.05;100.00;99472.50;4932056;29;20490;-89
2023/09/21 07:25:27;;;;;;;8.13;4.10;;;;;;;17.00;100.00;99476.91;4954996;29;20569;-92
2023/09/21 07:27:54;;;;;;;8.45;4.50;;;;;;;17.00;100.00;99466.69;4952371;29;20031;-90
2023/09/21 07:30:21;;;;;;;6.18;4.07;;;;;;;16.96;100.00;99465.38;4937912;29;20114;-90
2023/09/21 07:32:46;;;;;;;8.73;5.13;;;;;;;16.94;100.00;99467.50;4952637;29;20031;-90
2023/09/21 07:35:14;;;;;;;7.75;4.38;;;;;;;16.96;100.00;99470.91;4927630;29;20027;-90
2023/09/21 07:37:45;;;;;;;11.98;4.40;;;;;;;16.97;100.00;99466.22;4936822;29;20039;-90
2023/09/21 07:40:16;;;;;;;11.43;4.60;;;;;;;16.99;100.00;99470.53;4940654;29;20031;-90
2023/09/21 07:42:48;;;;;;;7.53;4.43;;;;;;;17.02;100.00;99470.13;4939961;29;20031;-90
2023/09/21 07:45:15;;;;;;;9.67;4.60;;;;;;;17.00;100.00;99468.59;4939467;29;20070;-91
2023/09/21 07:47:41;;;;;;;9.43;4.40;;;;;;;16.95;100.00;99460.88;4924379;29;20079;-92
2023/09/21 07:50:08;;;;;;;8.50;4.35;;;;;;;16.97;100.00;99463.47;4947724;29;20038;-91
2023/09/21 07:52:35;;;;;;;14.32;4.05;;;;;;;17.06;100.00;99463.13;4950004;28;20067;-91
2023/09/21 07:55:04;;;;;;;10.55;4.10;;;;;;;17.11;100.00;99457.00;4934428;29;20122;-91
2023/09/21 07:57:33;;;;;;;7.45;4.32;;;;;;;17.09;100.00;99461.88;4954105;29;20141;-91
2023/09/21 08:00:01;;;;;;;9.70;4.53;;;;;;;17.05;100.00;99458.66;4955110;29;20117;-92
2023/09/21 08:02:27;;;;;;;12.68;5.32;;;;;;;17.14;100.00;99467.69;4929061;29;20038;-92
2023/09/21 08:04:55;;;;;;;11.27;4.20;;;;;;;17.14;100.00;99466.84;4951360;29;20032;-91
2023/09/21 08:07:25;;;;;;;10.45;4.55;;;;;;;17.17;100.00;99472.81;4943356;29;20032;-91
2023/09/21 08:09:51;;;;;;;12.90;3.70;;;;;;;17.18;100.00;99485.56;4955983;29;20027;-92
2023/09/21 08:12:17;;;;;;;11.35;4.10;;;;;;;17.20;100.00;99488.13;4942623;29;20059;-92
2023/09/21 08:14:43;;;;;;;10.63;3.67;;;;;;;17.19;100.00;99483.69;4907806;29;20032;-92
2023/09/21 08:17:10;;;;;;;9.32;3.90;;;;;;;17.26;100.00;99488.19;4923463;29;20549;-92
2023/09/21 08:19:39;;;;;;;6.97;4.32;;;;;;;17.29;100.00;99483.34;4929736;28;20027;-93
2023/09/21 08:22:04;;;;;;;9.93;4.38;;;;;;;17.27;100.00;99489.06;4956800;29;20045;-92
2023/09/21 08:24:31;;;;;;;13.27;3.88;;;;;;;17.32;100.00;99492.09;4919639;29;20121;-92
2023/09/21 08:26:56;;;;;;;9.05;4.35;;;;;;;17.33;100.00;99499.34;4956441;29;20124;-92
2023/09/21 08:29:22;;;;;;;10.20;4.60;;;;;;;17.33;100.00;99499.34;4920810;29;20483;-92
2023/09/21 08:31:48;;;;;;;8.07;4.70;;;;;;;17.40;100.00;99508.56;4905251;29;20535;-93
2023/09/21 08:34:15;;;;;;;13.70;4.53;;;;;;;17.39;100.00;99506.84;4944526;29;20098;-92
2023/09/21 08:36:44;;;;;;;6.43;4.20;;;;;;;17.47;100.00;99508.63;4953480;28;20031;-93
2023/09/21 08:39:10;;;;;;;15.20;5.35;;;;;;;17.44;100.00;99501.56;4915528;29;20499;-93
2023/09/21 08:41:38;;;;;;;8.77;4.70;;;;;;;17.47;100.00;99507.75;4935595;29;20042;-92
2023/09/21 08:44:07;;;;;;;13.32;5.07;;;;;;;17.51;100.00;99506.28;4951416;29;20051;-92
2023/09/21 08:46:33;;;;;;;9.25;4.40;;;;;;;17.52;100.00;99514.41;4942374;29;20039;-92
2023/09/21 08:49:00;;;;;;;9.07;4.47;;;;;;;17.59;100.00;99512.56;4921537;29;20035;-93
2023/09/21 08:51:26;;;;;;;6.72;4.43;;;;;;;17.57;100.00;99514.66;4919839;29;20027;-93
2023/09/21 08:53:54;;;;;;;7.00;3.65;;;;;;;17.69;100.00;99517.72;4931820;29;20040;-92
2023/09/21 08:56:21;;;;;;;7.60;4.60;;;;;;;17.72;100.00;99516.47;4947734;29;20121;-93
2023/09/21 08:58:52;;;;;;;4.47;3.50;;;;;;;17.77;100.00;99522.25;4950143;29;20023;-92
2023/09/21 09:01:19;;;;;;;15.27;4.03;;;;;;;17.79;100.00;99529.31;4940222;29;20058;-93
2023/09/21 09:03:44;;;;;;;12.18;3.67;;;;;;;17.85;100.00;99518.50;4950125;29;20027;-93
2023/09/21 09:06:10;;;;;;;9.75;3.03;;;;;;;17.90;100.00;99513.22;4921365;29;20541;-93
2023/09/21 09:08:35;;;;;;;10.55;4.13;;;;;;;18.03;100.00;99515.25;4946701;28;20023;-92
2023/09/21 09:11:01;;;;;;;8.57;4.55;;;;;;;18.15;100.00;99519.13;4960457;28;20130;-92
2023/09/21 09:13:33;;;;;;;8.68;3.60;;;;;;;18.18;100.00;99527.91;4938606;29;20178;-92
2023/09/21 09:16:01;;;;;;;9.68;4.82;;;;;;;18.13;100.00;99522.09;4925010;29;20039;-93
2023/09/21 09:18:27;;;;;;;19.35;5.95;;;;;;;18.11;100.00;99518.69;4942843;29;20024;-92
2023/09/21 09:20:57;;;;;;;16.55;6.78;;;;;;;18.14;100.00;99523.81;4956329;28;20535;-93
2023/09/21 09:23:24;;;;;;;14.93;6.57;;;;;;;18.14;100.00;99517.44;4927756;29;20032;-92
2023/09/21 09:25:51;;;;;;;10.82;6.25;;;;;;;18.13;100.00;99527.63;4946371;29;20028;-92
2023/09/21 09:28:17;;;;;;;6.13;3.80;;;;;;;18.18;100.00;99532.56;4932631;29;20035;-92
2023/09/21 09:30:45;;;;;;;5.88;4.07;;;;;;;18.27;100.00;99527.75;4941818;29;20114;-93
2023/09/21 09:33:15;;;;;;;12.38;5.10;;;;;;;18.37;100.00;99511.59;4927061;29;20047;-93
2023/09/21 09:35:41;;;;;;;10.77;4.63;;;;;;;18.46;100.00;99515.91;4952866;29;20023;-91
2023/09/21 09:38:11;;;;;;;9.68;4.78;;;;;;;18.50;100.00;99503.34;4943805;28;20027;-92
2023/09/21 09:40:38;;;;;;;7.95;4.47;;;;;;;18.54;100.00;99501.88;4960064;28;20030;-93
2023/09/21 09:43:07;;;;;;;7.93;3.65;;;;;;;18.50;100.00;99499.72;4955686;29;20498;-92
2023/09/21 09:45:34;;;;;;;8.57;3.97;;;;;;;18.51;100.00;99513.38;4969488;29;20058;-92
2023/09/21 09:48:03;;;;;;;13.88;4.22;;;;;;;18.56;100.00;99504.41;4952893;28;20490;-93
2023/09/21 09:50:34;;;;;;;11.38;4.20;;;;;;;18.59;100.00;99511.47;4955239;29;20243;-93
2023/09/21 09:53:07;;;;;;;19.92;5.63;;;;;;;18.63;100.00;99499.75;4957461;29;20071;-92
2023/09/21 09:55:35;;;;;;;17.60;4.63;;;;;;;18.63;100.00;99501.69;4930160;29;20024;-92
2023/09/21 09:58:08;;;;;;;7.28;4.30;;;;;;;18.65;100.00;99505.09;4940877;29;20107;-93
2023/09/21 10:00:35;;;;;;;11.30;4.45;;;;;;;18.69;100.00;99509.16;4936992;29;20123;-92
2023/09/21 10:03:03;;;;;;;12.65;4.05;;;;;;;18.66;100.00;99507.66;4931774;29;20043;-92
2023/09/21 10:05:30;;;;;;;8.55;3.53;;;;;;;18.71;100.00;99504.28;4956923;28;20026;-93
2023/09/21 10:08:00;;;;;;;7.13;3.53;;;;;;;18.69;100.00;99503.59;4941332;29;20039;-93
2023/09/21 10:10:30;;;;;;;5.43;2.90;;;;;;;18.73;100.00;99508.53;4955452;28;20094;-92
2023/09/21 10:12:57;;;;;;;7.28;3.05;;;;;;;18.80;100.00;99510.47;4945185;29;20031;-92
2023/09/21 10:15:26;;;;;;;6.65;2.60;;;;;;;18.81;100.00;99513.03;4948111;29;20490;-93
2023/09/21 10:17:55;;;;;;;10.63;3.60;;;;;;;18.86;100.00;99504.97;4927374;29;20039;-92
2023/09/21 10:20:32;;;;;;;8.55;2.90;;;;;;;18.91;100.00;99509.91;4954772;28;20065;-93
2023/09/21 10:23:01;;;;;;;9.15;2.60;;;;;;;18.95;100.00;99505.63;4934983;29;20027;-92
2023/09/21 10:25:55;;;;;;;9.52;2.75;;;;;;;18.99;100.00;99493.06;4955951;28;20095;-93
2023/09/21 10:28:34;;;;;;;4.47;2.47;;;;;;;19.03;100.00;99504.59;4945427;29;20040;-92
2023/09/21 10:31:20;;;;;;;10.82;2.92;;;;;;;19.04;100.00;99495.22;4945951;29;20182;-78
2023/09/21 10:33:51;;;;;;;6.18;2.33;;;;;;;19.14;100.00;99484.56;4945439;28;20028;-78
2023/09/21 10:36:26;;;;;;;11.00;2.85;;;;;;;19.23;100.00;99488.84;4943968;28;20489;-78
2023/09/21 10:39:05;;;;;;;4.85;2.00;;;;;;;19.27;100.00;99483.72;4943398;29;20039;-77
2023/09/21 10:41:30;;;;;;;5.63;2.20;;;;;;;19.27;100.00;99484.56;4944110;28;20054;-78
2023/09/21 10:43:56;;;;;;;8.48;2.70;;;;;;;19.26;100.00;99487.56;4930525;29;20031;-78
2023/09/21 10:46:24;;;;;;;6.22;2.40;;;;;;;19.32;100.00;99481.16;4947044;29;20483;-77
2023/09/21 10:49:04;;;;;;;4.40;2.05;;;;;;;19.31;100.00;99493.31;4945205;28;20525;-78
2023/09/21 10:51:31;;;;;;;7.97;2.22;;;;;;;19.29;100.00;99476.88;4928158;29;20074;-77
2023/09/21 10:54:03;;;;;;;8.10;2.22;;;;;;;19.32;100.00;99480.31;4932386;29;20046;-77
2023/09/21 10:56:28;;;;;;;13.27;2.90;;;;;;;19.31;100.00;99484.16;4947630;29;20150;-78
2023/09/21 10:58:54;;;;;;;14.60;2.63;;;;;;;19.39;100.00;99473.69;4933176;28;20114;-78
2023/09/21 11:01:20;;;;;;;7.97;2.35;;;;;;;19.54;100.00;99476.22;4930337;29;20123;-77
2023/09/21 11:03:48;;;;;;;9.35;2.67;;;;;;;19.74;100.00;99470.69;4927217;28;20042;-78
2023/09/21 11:06:17;;;;;;;10.57;2.63;;;;;;;19.98;100.00;99474.72;4925639;29;20066;-78
2023/09/21 11:08:49;;;;;;;7.90;2.58;;;;;;;19.94;100.00;99462.34;4911504;29;20035;-78
2023/09/21 11:11:21;;;;;;;6.68;2.00;;;;;;;19.91;100.00;99468.31;4928614;28;20035;-78
2023/09/21 11:13:51;;;;;;;6.55;2.58;;;;;;;19.88;100.00;99454.88;4931525;29;20111;-78
2023/09/21 11:16:17;;;;;;;3.95;2.15;;;;;;;19.84;100.00;99450.84;4951530;28;20035;-78
2023/09/21 11:18:44;;;;;;;10.07;2.33;;;;;;;19.83;100.00;99447.19;4929923;29;20512;-78
2023/09/21 11:21:11;;;;;;;6.75;2.28;;;;;;;19.78;100.00;99444.19;4950938;28;20039;-78
2023/09/21 11:23:40;;;;;;;4.10;1.80;;;;;;;19.81;100.00;99437.38;4932499;28;20051;-77
2023/09/21 11:26:10;;;;;;;4.90;1.70;;;;;;;19.88;100.00;99429.88;4929479;29;20035;-77
2023/09/21 11:28:36;;;;;;;8.07;2.00;;;;;;;19.84;100.00;99442.50;4922088;29;20039;-77